Time;durP1;ratioP1;P1;durP2;ratioP2;P2;SDS_P1;SDS_P2;PMS_P1;PMS_P2;Temp;Humidity;BMP_temperature;BMP_pressure;BME280_temperature;BME280_humidity;BME280_pressure;Samples;Min_cycle;Max_cycle;Signal;HPM_P1;HPM_P2
2023/11/27 06:01:33;;;;;;;6.95;3.65;;;3.60;79.70;;;;;;4406156;23;20108;-81
2023/11/27 06:03:36;;;;;;;5.63;3.35;;;3.70;79.80;;;;;;4139557;28;20054;-83
2023/11/27 06:05:38;;;;;;;7.00;3.00;;;3.60;79.80;;;;;;4135259;28;20058;-81
2023/11/27 06:07:40;;;;;;;5.95;3.30;;;3.60;79.70;;;;;;4133646;28;20038;-81
2023/11/27 06:09:42;;;;;;;7.22;3.25;;;3.60;79.40;;;;;;4140451;28;20112;-80
2023/11/27 06:11:45;;;;;;;6.28;3.17;;;3.60;79.30;;;;;;4141982;28;20065;-82
2023/11/27 06:13:46;;;;;;;5.35;3.03;;;3.60;79.20;;;;;;4145626;28;20081;-80
2023/11/27 06:15:48;;;;;;;7.35;3.35;;;3.60;79.60;;;;;;4147243;28;20050;-80
2023/11/27 06:17:52;;;;;;;5.38;3.05;;;3.60;79.60;;;;;;4147207;28;20050;-81
2023/11/27 06:19:53;;;;;;;5.57;2.83;;;3.60;79.60;;;;;;4144328;28;20105;-81
2023/11/27 06:21:55;;;;;;;5.75;3.00;;;3.60;79.40;;;;;;4143799;28;20046;-81
2023/11/27 06:23:57;;;;;;;7.88;3.35;;;3.60;79.90;;;;;;4145185;28;20042;-81
2023/11/27 06:26:01;;;;;;;6.57;3.20;;;3.70;79.70;;;;;;4145722;28;20113;-81
2023/11/27 06:28:03;;;;;;;7.82;3.40;;;3.70;79.60;;;;;;4143616;28;20057;-82
2023/11/27 06:30:06;;;;;;;5.70;3.38;;;3.70;79.20;;;;;;4143719;28;20463;-82
2023/11/27 06:32:07;;;;;;;5.70;3.30;;;3.70;79.50;;;;;;4147971;28;20054;-81
2023/11/27 06:34:11;;;;;;;7.40;3.50;;;3.70;79.40;;;;;;4147766;28;20073;-80
2023/11/27 06:36:13;;;;;;;6.35;3.55;;;3.70;79.20;;;;;;4146314;28;20061;-80
2023/11/27 06:38:14;;;;;;;5.68;3.30;;;3.70;79.20;;;;;;4136056;28;20046;-82
2023/11/27 06:40:16;;;;;;;6.63;3.53;;;3.70;78.90;;;;;;4135365;28;20391;-80
2023/11/27 06:42:18;;;;;;;7.55;3.00;;;3.70;78.90;;;;;;4135774;28;20463;-80
2023/11/27 06:44:20;;;;;;;6.57;3.60;;;3.70;78.60;;;;;;4135323;28;20054;-82
2023/11/27 06:46:22;;;;;;;6.22;3.35;;;3.70;78.90;;;;;;4135236;28;20496;-80
2023/11/27 06:48:23;;;;;;;7.80;4.20;;;3.70;79.00;;;;;;4135139;28;20492;-81
2023/11/27 06:50:26;;;;;;;6.60;3.90;;;3.70;79.40;;;;;;4135054;28;20054;-80
2023/11/27 06:52:27;;;;;;;5.93;3.25;;;3.70;79.60;;;;;;4135089;28;20046;-81
2023/11/27 06:54:29;;;;;;;7.43;3.55;;;3.70;79.60;;;;;;4135198;28;20053;-82
2023/11/27 06:56:33;;;;;;;7.45;3.05;;;3.80;79.70;;;;;;4135454;28;20154;-82
2023/11/27 06:58:35;;;;;;;6.53;3.15;;;3.80;79.60;;;;;;4135457;28;20113;-82
2023/11/27 07:00:37;;;;;;;5.03;3.10;;;3.70;79.40;;;;;;4134864;28;20046;-81
2023/11/27 07:02:40;;;;;;;7.70;3.15;;;3.70;79.80;;;;;;4135126;28;20058;-81
2023/11/27 07:04:41;;;;;;;5.38;3.13;;;3.80;79.90;;;;;;4135208;28;20084;-81
2023/11/27 07:06:45;;;;;;;6.68;3.15;;;3.70;79.90;;;;;;4135550;28;20117;-80
2023/11/27 07:08:47;;;;;;;8.27;3.30;;;3.70;79.90;;;;;;4135106;28;20054;-81
2023/11/27 07:10:49;;;;;;;6.47;3.20;;;3.70;80.20;;;;;;4134914;28;20097;-80
2023/11/27 07:12:50;;;;;;;6.10;3.00;;;3.70;80.30;;;;;;4134780;28;20109;-80
2023/11/27 07:14:52;;;;;;;7.05;3.30;;;3.70;79.90;;;;;;4134679;28;20455;-82
2023/11/27 07:16:55;;;;;;;8.20;3.33;;;3.70;80.10;;;;;;4134577;28;20108;-82
2023/11/27 07:18:57;;;;;;;5.63;2.60;;;3.70;80.30;;;;;;4133777;28;20078;-81
2023/11/27 07:21:00;;;;;;;5.13;2.80;;;3.80;79.40;;;;;;4134554;28;20127;-81
2023/11/27 07:23:03;;;;;;;6.35;3.53;;;3.70;79.10;;;;;;4134858;28;20051;-82
2023/11/27 07:25:06;;;;;;;6.82;3.40;;;3.80;79.70;;;;;;4134576;28;20050;-80
2023/11/27 07:27:08;;;;;;;5.65;2.88;;;3.80;79.60;;;;;;4134424;28;20133;-80
2023/11/27 07:29:12;;;;;;;6.38;3.00;;;3.80;79.20;;;;;;4134472;28;20054;-80
2023/11/27 07:31:16;;;;;;;7.30;3.67;;;3.80;78.60;;;;;;4134225;28;20054;-82
2023/11/27 07:33:18;;;;;;;6.03;3.17;;;3.80;79.10;;;;;;4134226;28;20384;-82
2023/11/27 07:35:20;;;;;;;6.40;3.35;;;3.80;79.30;;;;;;4134664;28;20450;-82
2023/11/27 07:37:22;;;;;;;5.53;3.17;;;3.80;79.20;;;;;;4134294;28;20102;-82
2023/11/27 07:39:26;;;;;;;6.10;3.25;;;3.80;79.30;;;;;;4134282;28;20052;-80
2023/11/27 07:41:28;;;;;;;7.50;3.42;;;3.80;79.00;;;;;;4134329;28;20054;-80
2023/11/27 07:43:30;;;;;;;6.13;3.20;;;3.90;79.40;;;;;;4134297;28;20050;-80
2023/11/27 07:45:32;;;;;;;5.00;2.97;;;3.80;80.00;;;;;;4134099;28;20476;-79
2023/11/27 07:47:33;;;;;;;7.05;3.55;;;3.80;79.80;;;;;;4134222;28;20491;-81
2023/11/27 07:49:35;;;;;;;6.18;3.70;;;3.90;79.60;;;;;;4134264;28;20439;-80
2023/11/27 07:51:37;;;;;;;7.82;4.68;;;3.90;79.30;;;;;;4133930;28;20495;-79
2023/11/27 07:53:40;;;;;;;10.25;5.88;;;3.90;79.30;;;;;;4134118;28;20117;-79
2023/11/27 07:55:43;;;;;;;11.32;5.60;;;3.90;79.30;;;;;;4134062;28;20545;-79
2023/11/27 07:57:45;;;;;;;9.02;5.15;;;3.90;79.30;;;;;;4134066;28;20054;-81
2023/11/27 07:59:48;;;;;;;10.55;5.30;;;3.90;79.20;;;;;;4136865;28;20058;-82
2023/11/27 08:01:50;;;;;;;11.07;4.50;;;3.90;79.80;;;;;;4135026;28;20544;-79
2023/11/27 08:03:51;;;;;;;7.78;3.95;;;3.90;79.70;;;;;;4133784;28;20046;-80
2023/11/27 08:05:53;;;;;;;6.60;3.40;;;4.00;79.70;;;;;;4134223;28;20050;-82
2023/11/27 08:07:55;;;;;;;7.28;3.20;;;4.00;79.60;;;;;;4133993;28;20123;-81
2023/11/27 08:09:57;;;;;;;5.97;3.20;;;4.00;79.20;;;;;;4134473;28;20490;-80
2023/11/27 08:12:00;;;;;;;6.90;3.22;;;4.10;79.10;;;;;;4133719;28;20046;-79
2023/11/27 08:14:02;;;;;;;7.30;3.70;;;4.10;79.00;;;;;;4133971;28;20061;-79
2023/11/27 08:16:05;;;;;;;5.85;2.90;;;4.10;79.00;;;;;;4134204;28;20561;-80
2023/11/27 08:18:07;;;;;;;7.63;3.90;;;4.10;79.30;;;;;;4134170;28;20108;-80
2023/11/27 08:20:10;;;;;;;7.05;3.90;;;4.20;79.00;;;;;;4133753;28;20057;-83
2023/11/27 08:22:13;;;;;;;7.60;4.40;;;4.20;79.00;;;;;;4134062;28;20057;-80
2023/11/27 08:24:15;;;;;;;9.88;4.28;;;4.20;79.20;;;;;;4121815;28;20055;-81
2023/11/27 08:26:17;;;;;;;7.60;4.13;;;4.20;78.90;;;;;;4117694;28;20100;-82
2023/11/27 08:28:21;;;;;;;8.20;4.30;;;4.20;78.70;;;;;;4118521;28;20508;-81
2023/11/27 08:30:24;;;;;;;7.30;3.78;;;4.20;78.70;;;;;;4131903;28;20050;-82
2023/11/27 08:32:28;;;;;;;7.68;4.30;;;4.30;78.40;;;;;;4132859;28;20137;-82
2023/11/27 08:34:31;;;;;;;8.35;3.92;;;4.30;78.60;;;;;;4131686;28;20058;-83
2023/11/27 08:36:32;;;;;;;6.78;4.20;;;4.30;78.30;;;;;;4131555;28;20051;-83
2023/11/27 08:38:34;;;;;;;6.78;4.25;;;4.30;78.20;;;;;;4133114;28;20482;-83
2023/11/27 08:40:36;;;;;;;9.55;5.10;;;4.30;78.40;;;;;;4138912;28;20065;-83
2023/11/27 08:42:39;;;;;;;9.18;5.07;;;4.30;79.70;;;;;;4139470;28;20105;-82
2023/11/27 08:44:42;;;;;;;10.32;5.53;;;4.30;79.80;;;;;;4139216;28;20046;-84
2023/11/27 08:46:46;;;;;;;11.43;5.47;;;4.30;79.80;;;;;;4138944;28;20483;-81
2023/11/27 08:48:48;;;;;;;10.40;5.15;;;4.30;79.70;;;;;;4136105;28;20053;-81
2023/11/27 08:50:50;;;;;;;9.02;4.55;;;4.20;80.60;;;;;;4132917;28;20064;-83
2023/11/27 08:52:54;;;;;;;9.18;5.22;;;4.30;80.20;;;;;;4129688;28;20451;-82
2023/11/27 08:54:57;;;;;;;7.30;4.32;;;4.40;80.10;;;;;;4131957;28;20513;-82
2023/11/27 08:56:59;;;;;;;7.97;4.40;;;4.40;79.60;;;;;;4133018;28;20129;-82
2023/11/27 08:59:01;;;;;;;9.55;4.80;;;4.40;79.10;;;;;;4133813;28;20046;-82
2023/11/27 09:01:05;;;;;;;9.60;5.00;;;4.40;79.30;;;;;;4132046;28;20558;-82
2023/11/27 09:03:07;;;;;;;8.55;4.07;;;4.50;79.60;;;;;;4131345;28;20054;-80
2023/11/27 09:05:08;;;;;;;7.43;3.67;;;4.50;78.30;;;;;;4131003;28;20050;-83
2023/11/27 09:07:11;;;;;;;7.88;4.07;;;4.50;77.90;;;;;;4132984;28;20161;-82
2023/11/27 09:09:13;;;;;;;7.28;3.80;;;4.50;77.70;;;;;;4132279;28;20057;-82
2023/11/27 09:11:15;;;;;;;7.18;4.18;;;4.60;77.80;;;;;;4131651;28;20054;-81
2023/11/27 09:13:16;;;;;;;6.47;3.88;;;4.60;77.50;;;;;;4131465;28;20065;-81
2023/11/27 09:15:19;;;;;;;6.15;3.60;;;4.60;77.70;;;;;;4131615;28;20553;-81
2023/11/27 09:17:22;;;;;;;6.25;3.22;;;4.60;77.50;;;;;;4131402;28;20105;-80
2023/11/27 09:19:24;;;;;;;8.48;4.00;;;4.60;77.30;;;;;;4130639;28;20054;-82
2023/11/27 09:21:26;;;;;;;9.45;3.80;;;4.70;77.20;;;;;;4131036;28;20575;-80
2023/11/27 09:23:28;;;;;;;7.40;3.80;;;4.70;77.00;;;;;;4130866;28;20085;-81
2023/11/27 09:25:30;;;;;;;8.00;4.30;;;4.70;77.50;;;;;;4130773;28;20113;-82
2023/11/27 09:27:32;;;;;;;11.90;4.72;;;4.70;78.20;;;;;;4130741;28;20104;-81
2023/11/27 09:29:34;;;;;;;9.20;4.57;;;4.70;78.50;;;;;;4130860;28;20074;-81
2023/11/27 09:31:36;;;;;;;8.20;4.72;;;4.70;78.50;;;;;;4130712;28;20113;-80
2023/11/27 09:33:39;;;;;;;8.30;4.30;;;4.80;79.10;;;;;;4130355;28;20112;-81
2023/11/27 09:35:40;;;;;;;8.90;5.35;;;4.90;79.30;;;;;;4129990;28;20069;-81
2023/11/27 09:37:42;;;;;;;8.85;4.90;;;4.70;79.90;;;;;;4130524;28;20077;-80
2023/11/27 09:39:43;;;;;;;8.35;4.63;;;4.70;80.10;;;;;;4131379;28;20385;-81
2023/11/27 09:41:45;;;;;;;9.50;4.78;;;4.80;80.10;;;;;;4131398;28;20121;-80
2023/11/27 09:43:47;;;;;;;8.60;4.10;;;4.90;79.20;;;;;;4130312;28;20050;-79
2023/11/27 09:45:49;;;;;;;6.88;3.88;;;4.90;78.00;;;;;;4130583;28;20054;-80
2023/11/27 09:47:50;;;;;;;6.65;3.90;;;4.90;76.70;;;;;;4131954;28;20087;-80
2023/11/27 09:49:59;;;;;;;6.82;3.72;;;5.00;76.60;;;;;;4132627;28;20162;-81
2023/11/27 09:52:04;;;;;;;7.18;3.78;;;5.00;76.40;;;;;;4131084;28;20042;-79
2023/11/27 09:54:11;;;;;;;7.72;4.10;;;5.00;74.80;;;;;;4111377;28;20137;-81
2023/11/27 09:56:15;;;;;;;17.02;9.05;;;5.00;75.20;;;;;;4113536;28;20344;-81
2023/11/27 09:58:21;;;;;;;18.65;11.27;;;5.00;75.30;;;;;;4131685;28;20403;-82
2023/11/27 10:00:24;;;;;;;15.88;9.25;;;5.10;75.70;;;;;;4130199;28;20062;-81
2023/11/27 10:02:25;;;;;;;12.57;6.63;;;5.10;75.70;;;;;;4130166;28;20050;-82
2023/11/27 10:04:28;;;;;;;8.80;4.60;;;5.10;75.90;;;;;;4129924;28;20058;-82
2023/11/27 10:06:34;;;;;;;10.27;5.38;;;5.20;75.90;;;;;;4130112;28;20094;-81
2023/11/27 10:08:36;;;;;;;10.23;4.60;;;5.20;76.20;;;;;;4130724;28;20086;-82
2023/11/27 10:10:38;;;;;;;6.32;3.50;;;5.20;76.00;;;;;;4130195;28;20058;-82
2023/11/27 10:12:45;;;;;;;6.32;3.70;;;5.30;76.20;;;;;;4130474;28;20384;-82
2023/11/27 10:14:47;;;;;;;7.68;4.15;;;5.30;75.90;;;;;;4131550;28;20093;-80
2023/11/27 10:16:50;;;;;;;7.40;4.15;;;5.40;76.00;;;;;;4131757;28;20054;-83
2023/11/27 10:18:52;;;;;;;7.63;4.00;;;5.30;75.90;;;;;;4131331;28;20058;-81
2023/11/27 10:20:54;;;;;;;6.68;3.83;;;5.30;76.40;;;;;;4130633;28;20142;-80
2023/11/27 10:23:01;;;;;;;8.55;4.47;;;5.40;76.90;;;;;;4130017;28;20096;-79
2023/11/27 10:25:07;;;;;;;7.82;4.90;;;5.10;78.10;;;;;;4130713;28;20050;-79
2023/11/27 10:27:09;;;;;;;7.65;4.13;;;4.90;79.40;;;;;;4130466;28;20051;-81
2023/11/27 10:29:11;;;;;;;11.38;5.05;;;5.10;79.40;;;;;;4129810;28;20562;-81
2023/11/27 10:31:12;;;;;;;8.93;4.30;;;5.20;78.60;;;;;;4129993;28;20060;-81
2023/11/27 10:33:15;;;;;;;7.90;4.43;;;5.30;78.40;;;;;;4130548;28;20148;-81
2023/11/27 10:35:17;;;;;;;8.50;4.30;;;5.30;78.50;;;;;;4131734;28;20084;-82
2023/11/27 10:37:19;;;;;;;6.50;4.38;;;5.40;78.10;;;;;;4131323;28;20116;-82
2023/11/27 10:39:25;;;;;;;7.85;4.15;;;5.30;78.50;;;;;;4131437;28;20635;-81
2023/11/27 10:41:31;;;;;;;8.48;4.32;;;5.50;77.90;;;;;;4131563;28;20042;-83
2023/11/27 10:43:36;;;;;;;10.68;4.35;;;5.60;77.00;;;;;;4132446;28;20058;-84
2023/11/27 10:45:39;;;;;;;7.35;4.10;;;5.70;76.30;;;;;;4132646;28;20054;-81
2023/11/27 10:47:43;;;;;;;8.85;4.10;;;5.70;75.00;;;;;;4130926;28;20492;-82
2023/11/27 10:49:46;;;;;;;6.68;3.78;;;5.70;74.60;;;;;;4130070;28;20054;-81
2023/11/27 10:51:48;;;;;;;10.30;4.25;;;5.80;74.60;;;;;;4130210;28;20058;-81
2023/11/27 10:53:52;;;;;;;7.38;4.50;;;5.80;74.10;;;;;;4128445;28;20137;-80
2023/11/27 10:55:58;;;;;;;8.50;3.90;;;5.90;74.10;;;;;;4132585;28;20097;-80
2023/11/27 10:58:00;;;;;;;;;;;5.90;73.50;;;;;;4133995;28;20104;-79
2023/11/27 11:00:02;;;;;;;8.02;4.00;;;6.00;73.30;;;;;;4133396;28;19925;-80
2023/11/27 11:02:08;;;;;;;9.32;4.30;;;6.00;72.70;;;;;;4132275;28;20055;-80
2023/11/27 11:04:17;;;;;;;8.30;4.10;;;6.00;72.40;;;;;;4132407;28;20475;-80
2023/11/27 11:06:22;;;;;;;8.38;4.55;;;6.10;72.30;;;;;;4132239;28;20050;-80
2023/11/27 11:08:26;;;;;;;11.43;4.85;;;6.20;72.20;;;;;;4132348;28;20050;-81
2023/11/27 11:10:31;;;;;;;8.02;4.70;;;6.20;71.90;;;;;;4131849;28;20093;-81
2023/11/27 11:12:36;;;;;;;8.25;4.75;;;6.30;72.00;;;;;;4132294;28;20377;-81
2023/11/27 11:14:38;;;;;;;7.10;4.10;;;6.30;71.60;;;;;;4131982;28;20109;-80
2023/11/27 11:16:50;;;;;;;9.73;4.53;;;6.40;71.30;;;;;;4132009;28;20105;-81
2023/11/27 11:19:00;;;;;;;8.65;4.53;;;6.50;71.20;;;;;;4133247;28;20050;-79
2023/11/27 11:21:27;;;;;;;7.72;4.40;;;6.50;70.90;;;;;;4132175;28;20053;-80
2023/11/27 11:23:39;;;;;;;6.38;3.65;;;6.60;70.60;;;;;;4132551;28;20086;-81
2023/11/27 11:25:48;;;;;;;9.23;4.30;;;6.60;70.60;;;;;;4132287;28;20043;-80
2023/11/27 11:28:04;;;;;;;6.93;3.78;;;6.60;70.20;;;;;;4132737;28;20133;-79
2023/11/27 11:30:12;;;;;;;5.53;2.97;;;6.70;68.80;;;;;;4132827;28;20111;-83
2023/11/27 11:32:16;;;;;;;5.82;2.90;;;6.70;66.40;;;;;;4132944;28;20086;-81
2023/11/27 11:34:23;;;;;;;6.22;3.22;;;6.70;64.70;;;;;;4132403;28;20081;-81
2023/11/27 11:36:35;;;;;;;5.53;2.90;;;6.70;64.50;;;;;;4133058;28;20061;-82
2023/11/27 11:38:44;;;;;;;5.05;2.78;;;6.80;64.90;;;;;;4132567;28;20089;-84
2023/11/27 11:40:48;;;;;;;5.00;2.80;;;6.70;64.40;;;;;;4132197;28;20133;-83
2023/11/27 11:42:51;;;;;;;5.78;2.85;;;6.80;63.90;;;;;;4132648;28;20385;-82
2023/11/27 11:45:16;;;;;;;5.30;2.55;;;6.70;63.00;;;;;;4132680;28;20046;-82
2023/11/27 11:47:26;;;;;;;5.93;3.10;;;6.70;63.80;;;;;;4131841;28;20397;-81
2023/11/27 11:49:29;;;;;;;5.95;2.72;;;6.80;63.60;;;;;;4131164;28;20043;-81
2023/11/27 11:51:31;;;;;;;5.88;2.90;;;6.70;62.30;;;;;;4131941;28;20057;-82
2023/11/27 11:53:42;;;;;;;5.13;2.67;;;6.70;62.60;;;;;;4129708;28;20468;-83
2023/11/27 11:55:48;;;;;;;5.57;2.92;;;6.80;63.40;;;;;;4131439;28;20081;-81
2023/11/27 11:57:51;;;;;;;5.93;2.92;;;6.80;63.10;;;;;;4131566;28;20125;-81
2023/11/27 11:59:53;;;;;;;7.18;2.90;;;6.80;63.80;;;;;;4131259;28;20051;-81
2023/11/27 12:01:56;;;;;;;7.65;3.15;;;6.80;63.20;;;;;;4095013;28;1076944;-81
2023/11/27 12:04:05;;;;;;;7.80;3.00;;;6.80;63.70;;;;;;4132053;28;20054;-82
2023/11/27 12:06:13;;;;;;;5.82;2.67;;;6.80;62.20;;;;;;4132454;28;20062;-82
2023/11/27 12:08:16;;;;;;;6.35;2.47;;;6.70;60.30;;;;;;4132774;28;20062;-83
2023/11/27 12:10:18;;;;;;;5.85;2.83;;;6.70;60.80;;;;;;4132295;28;20062;-85
2023/11/27 12:12:22;;;;;;;7.13;3.20;;;6.70;61.70;;;;;;4133489;28;20054;-84
2023/11/27 12:14:26;;;;;;;15.90;6.10;;;6.80;60.60;;;;;;4115474;28;20093;-81
2023/11/27 12:16:28;;;;;;;19.63;8.75;;;6.80;60.30;;;;;;4132684;28;20077;-81
2023/11/27 12:18:31;;;;;;;4.80;2.30;;;6.80;59.60;;;;;;4132350;28;20105;-82
2023/11/27 12:20:34;;;;;;;4.07;1.70;;;6.80;59.30;;;;;;4132053;28;20458;-82
2023/11/27 12:22:37;;;;;;;3.70;1.90;;;6.70;58.10;;;;;;4131974;28;20392;-83
2023/11/27 12:24:44;;;;;;;4.20;1.50;;;6.70;57.60;;;;;;4131689;28;20116;-83
2023/11/27 12:26:51;;;;;;;3.30;1.10;;;6.70;56.90;;;;;;4131646;28;20109;-84
2023/11/27 12:28:54;;;;;;;3.75;1.30;;;6.70;55.50;;;;;;4132141;28;20527;-83
2023/11/27 12:30:58;;;;;;;3.55;1.30;;;6.60;55.80;;;;;;4131709;28;20050;-84
2023/11/27 12:33:01;;;;;;;3.55;1.20;;;6.60;56.00;;;;;;4133335;28;20050;-82
2023/11/27 12:35:14;;;;;;;3.45;1.20;;;6.70;56.10;;;;;;4132160;28;20050;-81
2023/11/27 12:37:16;;;;;;;3.80;1.30;;;6.70;55.70;;;;;;4131819;28;20062;-84
2023/11/27 12:39:25;;;;;;;3.67;1.40;;;6.70;55.40;;;;;;4131707;28;20053;-83
2023/11/27 12:41:30;;;;;;;5.22;1.30;;;6.70;55.80;;;;;;4132181;28;20057;-82
2023/11/27 12:43:35;;;;;;;3.80;1.23;;;6.70;56.00;;;;;;4132012;28;20050;-83
2023/11/27 12:45:36;;;;;;;5.28;1.50;;;6.70;55.30;;;;;;4134592;28;20057;-83
2023/11/27 12:47:40;;;;;;;3.53;1.27;;;6.70;55.50;;;;;;4138057;28;20554;-85
2023/11/27 12:49:46;;;;;;;3.15;0.98;;;6.70;55.30;;;;;;4138231;28;20476;-85
2023/11/27 12:51:51;;;;;;;2.88;1.13;;;6.70;54.60;;;;;;4118007;28;20054;-83
2023/11/27 12:53:53;;;;;;;3.25;1.15;;;6.70;54.90;;;;;;4129179;28;20050;-84
2023/11/27 12:55:54;;;;;;;2.65;1.00;;;6.70;55.10;;;;;;4131734;28;20058;-82
2023/11/27 12:57:56;;;;;;;3.75;1.13;;;6.70;54.90;;;;;;4132846;28;20050;-83
2023/11/27 12:59:58;;;;;;;4.18;1.40;;;6.60;55.10;;;;;;4131847;28;20058;-82
2023/11/27 13:02:00;;;;;;;2.53;1.30;;;6.60;56.40;;;;;;4131434;28;20503;-83
2023/11/27 13:04:04;;;;;;;4.45;1.45;;;6.40;57.00;;;;;;4130789;28;20053;-82
2023/11/27 13:06:07;;;;;;;4.30;1.50;;;6.30;57.70;;;;;;4131905;28;20069;-83
2023/11/27 13:08:09;;;;;;;3.10;1.40;;;6.30;57.80;;;;;;4131027;28;20062;-83
2023/11/27 13:10:11;;;;;;;3.10;1.30;;;6.20;58.10;;;;;;4130625;28;20101;-84
2023/11/27 13:12:18;;;;;;;5.28;1.58;;;6.30;58.40;;;;;;4126461;28;20043;-83
2023/11/27 13:14:20;;;;;;;5.28;1.60;;;6.30;58.90;;;;;;4115326;28;20062;-84
2023/11/27 13:16:22;;;;;;;3.45;1.50;;;6.30;59.40;;;;;;4114878;28;20051;-82
2023/11/27 13:18:28;;;;;;;3.80;1.40;;;6.20;60.40;;;;;;4114183;28;20054;-83
2023/11/27 13:20:32;;;;;;;3.03;1.23;;;6.20;61.40;;;;;;4115124;28;20054;-84
2023/11/27 13:22:34;;;;;;;4.13;1.42;;;6.10;62.40;;;;;;4114731;28;20055;-85
2023/11/27 13:24:38;;;;;;;3.80;1.52;;;6.00;63.50;;;;;;4114871;28;20085;-84
2023/11/27 13:26:40;;;;;;;4.00;1.30;;;5.90;64.80;;;;;;4115320;28;20054;-81
2023/11/27 13:28:42;;;;;;;3.85;1.60;;;5.90;65.20;;;;;;4115101;28;20054;-84
2023/11/27 13:30:45;;;;;;;7.25;1.90;;;5.80;66.00;;;;;;4122577;28;20051;-84
2023/11/27 13:32:46;;;;;;;4.10;1.90;;;5.70;66.90;;;;;;4126546;28;20058;-82
2023/11/27 13:34:55;;;;;;;4.22;1.85;;;5.70;67.10;;;;;;4119516;28;20058;-85
2023/11/27 13:36:59;;;;;;;7.10;2.00;;;5.70;67.50;;;;;;4114982;28;20059;-82
2023/11/27 13:39:07;;;;;;;4.70;1.80;;;5.70;67.80;;;;;;4115630;28;20480;-82
2023/11/27 13:41:14;;;;;;;3.17;1.27;;;5.70;68.10;;;;;;4115495;28;20093;-83
2023/11/27 13:43:17;;;;;;;4.80;1.80;;;5.50;68.90;;;;;;4114497;28;20465;-82
2023/11/27 13:45:25;;;;;;;3.83;1.75;;;5.50;69.90;;;;;;4115421;28;20493;-82
2023/11/27 13:47:27;;;;;;;4.93;1.80;;;5.50;69.90;;;;;;4114933;28;20051;-81
2023/11/27 13:49:31;;;;;;;3.65;1.65;;;5.60;70.20;;;;;;4114459;28;20059;-83
2023/11/27 13:51:33;;;;;;;4.70;1.90;;;5.50;70.90;;;;;;4115609;28;20101;-83
2023/11/27 13:53:37;;;;;;;5.03;2.20;;;5.50;71.40;;;;;;4114657;28;20069;-82
2023/11/27 13:55:40;;;;;;;4.90;2.10;;;5.50;72.10;;;;;;4117069;28;20047;-84
2023/11/27 13:57:43;;;;;;;5.13;2.25;;;5.50;72.60;;;;;;4115210;28;20074;-83
2023/11/27 13:59:44;;;;;;;5.40;2.10;;;5.50;73.40;;;;;;4115525;28;20412;-83
2023/11/27 14:01:46;;;;;;;4.10;2.33;;;5.50;74.00;;;;;;4117244;28;20062;-83
2023/11/27 14:03:47;;;;;;;8.25;4.22;;;5.50;74.40;;;;;;4130740;28;20146;-82
2023/11/27 14:05:50;;;;;;;6.35;3.08;;;5.50;75.10;;;;;;4130583;28;20085;-83
2023/11/27 14:07:52;;;;;;;6.45;2.78;;;5.50;75.50;;;;;;4131620;28;20046;-82
2023/11/27 14:09:58;;;;;;;5.57;2.45;;;5.50;76.00;;;;;;4131829;28;20516;-83
2023/11/27 14:12:00;;;;;;;4.35;2.10;;;5.50;76.10;;;;;;4132887;28;20058;-84
2023/11/27 14:14:09;;;;;;;7.40;3.33;;;5.60;76.50;;;;;;4138911;28;20056;-82
2023/11/27 14:16:13;;;;;;;6.35;3.53;;;5.50;77.80;;;;;;4134127;28;20073;-83
2023/11/27 14:20:52;;;;;;;5.30;3.00;;;5.40;79.10;;;;;;4132185;28;20053;-83
2023/11/27 14:22:55;;;;;;;6.82;3.55;;;5.50;78.60;;;;;;4131648;28;20050;-84
2023/11/27 14:25:23;;;;;;;6.93;3.40;;;5.50;79.10;;;;;;4131097;28;20124;-84
2023/11/27 14:27:23;;;;;;;6.97;3.25;;;5.50;79.80;;;;;;4130974;28;20466;-83
2023/11/27 14:29:27;;;;;;;6.22;3.30;;;5.60;80.40;;;;;;4133083;28;20054;-84
2023/11/27 14:31:29;;;;;;;5.85;3.20;;;5.60;80.00;;;;;;4134913;28;20150;-81
2023/11/27 14:33:32;;;;;;;7.28;3.70;;;5.60;79.30;;;;;;4134230;28;20054;-83
2023/11/27 14:35:33;;;;;;;5.63;3.35;;;5.60;80.00;;;;;;4132859;28;20242;-82
2023/11/27 14:37:35;;;;;;;6.18;3.22;;;5.40;80.80;;;;;;4133238;28;20061;-82
2023/11/27 14:39:38;;;;;;;6.28;3.03;;;5.40;81.00;;;;;;4133280;28;20094;-82
2023/11/27 14:41:41;;;;;;;6.18;3.30;;;5.40;80.60;;;;;;4133032;28;20058;-82
2023/11/27 14:43:43;;;;;;;6.28;3.42;;;5.40;79.90;;;;;;4133088;28;20124;-81
2023/11/27 14:45:48;;;;;;;6.13;3.10;;;5.40;80.40;;;;;;4132856;28;20050;-82
2023/11/27 14:47:50;;;;;;;8.35;3.55;;;5.50;80.60;;;;;;4132814;28;20093;-81
2023/11/27 14:49:53;;;;;;;6.15;3.28;;;5.50;80.80;;;;;;4133004;28;20120;-82
2023/11/27 14:51:58;;;;;;;6.80;3.40;;;5.40;81.00;;;;;;4132830;28;20077;-80
2023/11/27 14:54:02;;;;;;;7.10;3.40;;;5.40;81.30;;;;;;4131137;28;20050;-82
2023/11/27 14:56:07;;;;;;;6.00;3.20;;;5.50;80.90;;;;;;4132965;28;20144;-80
2023/11/27 14:58:14;;;;;;;7.95;3.60;;;5.50;81.60;;;;;;4132881;28;20141;-80
2023/11/27 15:00:22;;;;;;;5.45;2.92;;;5.40;81.50;;;;;;4133302;28;20339;-79
2023/11/27 15:02:28;;;;;;;5.82;3.15;;;5.50;81.40;;;;;;4132530;28;20080;-78
2023/11/27 15:04:30;;;;;;;;;;;5.50;81.30;;;;;;4133453;28;20101;-79
2023/11/27 15:06:34;;;;;;;10.07;5.15;;;5.50;81.10;;;;;;4132681;28;19922;-82
2023/11/27 15:08:36;;;;;;;11.65;6.65;;;5.50;80.90;;;;;;4134319;28;20499;-81
2023/11/27 15:10:38;;;;;;;6.35;3.47;;;5.50;81.40;;;;;;4132265;28;21705;-81
2023/11/27 15:12:42;;;;;;;8.40;4.05;;;5.50;81.60;;;;;;4133780;28;20480;-82
2023/11/27 15:14:47;;;;;;;8.30;3.85;;;5.40;81.90;;;;;;4133430;28;20076;-79
2023/11/27 15:16:51;;;;;;;7.22;4.10;;;5.40;82.20;;;;;;4133411;28;20058;-80
2023/11/27 15:18:53;;;;;;;7.63;3.65;;;5.40;82.50;;;;;;4133299;28;20069;-80
2023/11/27 15:20:55;;;;;;;6.32;3.30;;;5.40;82.90;;;;;;4132496;28;20058;-81
2023/11/27 15:22:58;;;;;;;7.18;3.17;;;5.30;82.80;;;;;;4134991;28;20145;-78
2023/11/27 15:25:01;;;;;;;6.72;3.45;;;5.30;83.10;;;;;;4132954;28;20137;-78
2023/11/27 15:27:04;;;;;;;6.57;2.88;;;5.30;83.40;;;;;;4133259;28;20475;-78
2023/11/27 15:29:12;;;;;;;7.65;3.10;;;5.30;83.80;;;;;;4132464;28;20153;-78
2023/11/27 15:31:16;;;;;;;6.88;3.20;;;5.30;84.30;;;;;;4131678;28;20133;-78
2023/11/27 15:33:18;;;;;;;5.72;3.10;;;5.30;83.50;;;;;;4132309;28;20054;-78
2023/11/27 15:35:19;;;;;;;6.43;2.92;;;5.30;83.60;;;;;;4131646;28;20164;-78
2023/11/27 15:37:23;;;;;;;5.75;3.13;;;5.20;84.10;;;;;;4133023;28;20078;-79
2023/11/27 15:39:28;;;;;;;6.00;3.20;;;5.20;83.80;;;;;;4135992;28;20046;-80
2023/11/27 15:41:31;;;;;;;7.60;3.45;;;5.20;83.80;;;;;;4115412;28;20093;-77
2023/11/27 15:43:33;;;;;;;6.25;3.22;;;5.30;84.30;;;;;;4116135;28;20089;-79
2023/11/27 15:45:35;;;;;;;9.07;4.30;;;5.20;83.80;;;;;;4128713;28;20487;-78
2023/11/27 15:47:38;;;;;;;10.88;5.93;;;5.20;84.20;;;;;;4131582;28;20108;-80
2023/11/27 15:49:40;;;;;;;10.50;5.95;;;5.20;84.40;;;;;;4130945;28;20411;-80
2023/11/27 15:51:41;;;;;;;8.95;4.20;;;5.20;84.50;;;;;;4131294;28;20078;-79
2023/11/27 15:53:42;;;;;;;7.63;3.80;;;5.30;84.70;;;;;;4129119;28;20054;-79
2023/11/27 15:55:44;;;;;;;7.35;3.95;;;5.30;84.60;;;;;;4132094;28;20050;-79
2023/11/27 15:57:47;;;;;;;7.85;4.20;;;5.20;84.90;;;;;;4131725;28;20081;-78
2023/11/27 15:59:47;;;;;;;6.28;3.88;;;5.20;85.00;;;;;;4129509;28;20536;-78
2023/11/27 16:01:49;;;;;;;7.93;4.20;;;5.30;84.90;;;;;;4130261;28;20097;-78
2023/11/27 16:03:52;;;;;;;9.10;4.63;;;5.30;84.90;;;;;;4128962;28;20166;-78
2023/11/27 16:05:54;;;;;;;8.50;4.43;;;5.30;85.10;;;;;;4122058;28;20054;-78
2023/11/27 16:07:59;;;;;;;7.63;4.43;;;5.30;85.20;;;;;;4131497;28;20077;-81
2023/11/27 16:10:00;;;;;;;8.38;4.30;;;5.30;85.20;;;;;;4131853;28;20054;-80
2023/11/27 16:12:03;;;;;;;9.68;4.55;;;5.20;85.20;;;;;;4131326;28;20065;-79
2023/11/27 16:14:08;;;;;;;9.02;4.57;;;5.10;86.10;;;;;;4131502;28;20506;-80
2023/11/27 16:16:10;;;;;;;15.97;8.53;;;5.20;86.10;;;;;;4132022;28;20120;-79
2023/11/27 16:18:15;;;;;;;13.95;7.25;;;5.20;85.70;;;;;;4131934;28;20054;-78
2023/11/27 16:20:20;;;;;;;8.05;4.50;;;5.20;85.50;;;;;;4130224;28;20053;-77
2023/11/27 16:22:26;;;;;;;9.85;4.55;;;5.20;85.80;;;;;;4131289;28;20062;-79
2023/11/27 16:24:30;;;;;;;;;;;5.20;85.90;;;;;;4131937;28;20090;-81
2023/11/27 16:26:32;;;;;;;8.45;4.63;;;5.10;85.90;;;;;;4131223;28;19957;-79
2023/11/27 16:28:34;;;;;;;8.20;4.20;;;5.10;85.60;;;;;;4131155;28;20062;-79
2023/11/27 16:30:36;;;;;;;9.23;4.65;;;5.00;86.60;;;;;;4131466;28;20097;-80
2023/11/27 16:32:37;;;;;;;8.63;4.50;;;5.10;86.70;;;;;;4131403;28;20054;-79
2023/11/27 16:34:39;;;;;;;9.90;4.57;;;5.10;86.30;;;;;;4130971;28;20054;-79
2023/11/27 16:36:41;;;;;;;10.85;4.90;;;5.00;86.60;;;;;;4130941;28;20403;-79
2023/11/27 16:38:44;;;;;;;8.32;4.18;;;5.10;86.60;;;;;;4131236;28;20491;-79
2023/11/27 16:40:46;;;;;;;8.68;4.30;;;5.10;86.50;;;;;;4131214;28;20112;-79
2023/11/27 16:42:50;;;;;;;9.15;4.28;;;5.10;86.20;;;;;;4131025;28;20053;-79
2023/11/27 16:44:52;;;;;;;7.35;4.30;;;5.00;86.20;;;;;;4131110;28;20085;-80
2023/11/27 16:46:54;;;;;;;7.35;4.47;;;5.00;86.80;;;;;;4130017;28;20052;-80
2023/11/27 16:48:57;;;;;;;9.07;4.78;;;5.00;87.10;;;;;;4130347;28;20093;-78
2023/11/27 16:50:59;;;;;;;8.95;4.85;;;5.10;87.00;;;;;;4130598;28;20085;-79
2023/11/27 16:53:03;;;;;;;8.65;4.50;;;5.10;86.80;;;;;;4129013;28;20062;-78
2023/11/27 16:55:06;;;;;;;8.20;4.65;;;5.10;86.70;;;;;;4130318;28;20435;-77